createdAt,value
2018-01-14T00:00:06.733Z,1024.92
2018-01-14T00:00:47.302Z,1024.88
2018-01-14T00:01:27.866Z,1024.92
2018-01-14T00:02:08.448Z,1024.9
2018-01-14T00:02:49.043Z,1024.89
2018-01-14T00:03:29.604Z,1024.86
2018-01-14T00:04:10.173Z,1024.88
2018-01-14T00:04:50.735Z,1024.88
2018-01-14T00:05:31.306Z,1024.91
2018-01-14T00:06:11.881Z,1024.84
2018-01-14T00:06:52.443Z,1024.91
2018-01-14T00:07:33.009Z,1024.86
2018-01-14T00:08:13.586Z,1024.85
2018-01-14T00:08:54.146Z,1024.91
2018-01-14T00:09:34.715Z,1024.82
2018-01-14T00:10:15.279Z,1024.83
2018-01-14T00:10:55.869Z,1024.9
2018-01-14T00:11:36.424Z,1024.79
2018-01-14T00:12:17.026Z,1024.89
2018-01-14T00:12:57.573Z,1024.86
2018-01-14T00:13:38.142Z,1024.83
2018-01-14T00:14:18.711Z,1024.85
2018-01-14T00:14:59.267Z,1024.88
2018-01-14T00:15:39.833Z,1024.89
2018-01-14T00:16:20.385Z,1024.83
2018-01-14T00:17:00.948Z,1024.91
2018-01-14T00:17:41.514Z,1024.89
2018-01-14T00:18:22.086Z,1024.85
2018-01-14T00:19:02.667Z,1024.84
2018-01-14T00:19:43.251Z,1024.84
2018-01-14T00:20:23.815Z,1024.83
2018-01-14T00:21:04.394Z,1024.85
2018-01-14T00:21:44.950Z,1024.86
2018-01-14T00:22:25.514Z,1024.88
2018-01-14T00:23:06.067Z,1024.86
2018-01-14T00:23:46.633Z,1024.83
2018-01-14T00:24:27.190Z,1024.88
2018-01-14T00:25:07.790Z,1024.84
2018-01-14T00:25:48.351Z,1024.91
2018-01-14T00:26:28.908Z,1024.83
2018-01-14T00:27:09.490Z,1024.79
2018-01-14T00:27:50.047Z,1024.84
2018-01-14T00:28:30.639Z,1024.85
2018-01-14T00:29:11.270Z,1024.83
2018-01-14T00:29:51.858Z,1024.83
2018-01-14T00:30:32.452Z,1024.85
2018-01-14T00:31:13.028Z,1024.85
2018-01-14T00:31:53.630Z,1024.86
2018-01-14T00:32:34.189Z,1024.84
2018-01-14T00:33:14.769Z,1024.85
2018-01-14T00:33:55.365Z,1024.85
2018-01-14T00:34:35.932Z,1024.8
2018-01-14T00:35:16.530Z,1024.85
2018-01-14T00:35:57.098Z,1024.83
2018-01-14T00:36:37.657Z,1024.81
2018-01-14T00:37:18.209Z,1024.77
2018-01-14T00:37:58.790Z,1024.82
2018-01-14T00:38:39.358Z,1024.79
2018-01-14T00:39:19.916Z,1024.74
2018-01-14T00:40:00.473Z,1024.81
2018-01-14T00:40:41.049Z,1024.76
2018-01-14T00:41:21.632Z,1024.81
2018-01-14T00:42:02.214Z,1024.82
2018-01-14T00:42:42.767Z,1024.79
2018-01-14T00:43:23.368Z,1024.77
2018-01-14T00:44:03.973Z,1024.69
2018-01-14T00:44:44.505Z,1024.71
2018-01-14T00:45:25.076Z,1024.68
2018-01-14T00:46:05.633Z,1024.71
2018-01-14T00:46:46.209Z,1024.75
2018-01-14T00:47:26.770Z,1024.77
2018-01-14T00:48:07.354Z,1024.7
2018-01-14T00:48:47.908Z,1024.71
2018-01-14T00:49:28.482Z,1024.72
2018-01-14T00:50:09.069Z,1024.71
2018-01-14T00:50:49.633Z,1024.72
2018-01-14T00:51:30.202Z,1024.69
2018-01-14T00:52:10.757Z,1024.69
2018-01-14T00:52:51.306Z,1024.77
2018-01-14T00:53:31.902Z,1024.73
2018-01-14T00:54:12.468Z,1024.69
2018-01-14T00:54:53.045Z,1024.75
2018-01-14T00:55:33.627Z,1024.72
2018-01-14T00:56:14.198Z,1024.73
2018-01-14T00:56:54.770Z,1024.77
2018-01-14T00:57:35.362Z,1024.77
2018-01-14T00:58:15.919Z,1024.8
2018-01-14T00:58:56.485Z,1024.76
2018-01-14T00:59:37.052Z,1024.8
2018-01-14T01:00:17.638Z,1024.78
2018-01-14T01:00:58.212Z,1024.75
2018-01-14T01:01:38.827Z,1024.76
2018-01-14T01:02:19.329Z,1024.78
2018-01-14T01:02:59.905Z,1024.76
2018-01-14T01:03:40.463Z,1024.74
2018-01-14T01:04:21.045Z,1024.8
2018-01-14T01:05:01.604Z,1024.8
2018-01-14T01:05:42.194Z,1024.78
2018-01-14T01:06:22.784Z,1024.76
2018-01-14T01:07:03.337Z,1024.76
2018-01-14T01:07:43.910Z,1024.79
2018-01-14T01:08:24.496Z,1024.79
2018-01-14T01:09:05.057Z,1024.83
2018-01-14T01:09:45.611Z,1024.77
2018-01-14T01:10:26.183Z,1024.76
2018-01-14T01:11:08.743Z,1024.78
2018-01-14T01:11:49.308Z,1024.75
2018-01-14T01:12:29.872Z,1024.72
2018-01-14T01:13:10.453Z,1024.76
2018-01-14T01:13:51.023Z,1024.76
2018-01-14T01:14:31.599Z,1024.78
2018-01-14T01:15:12.161Z,1024.77
2018-01-14T01:15:52.728Z,1024.78
2018-01-14T01:16:33.297Z,1024.72
2018-01-14T01:17:13.860Z,1024.73
2018-01-14T01:17:54.416Z,1024.62
2018-01-14T01:18:34.969Z,1024.73
2018-01-14T01:19:15.521Z,1024.65
2018-01-14T01:19:56.105Z,1024.73
2018-01-14T01:20:36.668Z,1024.67
2018-01-14T01:21:17.249Z,1024.7
2018-01-14T01:21:57.823Z,1024.7
2018-01-14T01:22:38.377Z,1024.71
2018-01-14T01:23:18.932Z,1024.7
2018-01-14T01:23:59.486Z,1024.68
2018-01-14T01:24:40.051Z,1024.68
2018-01-14T01:25:20.618Z,1024.63
2018-01-14T01:26:01.194Z,1024.64
2018-01-14T01:26:41.760Z,1024.62
2018-01-14T01:27:22.327Z,1024.68
2018-01-14T01:28:02.900Z,1024.66
2018-01-14T01:28:43.467Z,1024.72
2018-01-14T01:29:24.023Z,1024.67
2018-01-14T01:30:04.573Z,1024.68
2018-01-14T01:30:45.125Z,1024.73
2018-01-14T01:31:25.676Z,1024.67
2018-01-14T01:32:06.223Z,1024.66
2018-01-14T01:32:46.796Z,1024.66
2018-01-14T01:33:27.404Z,1024.65
2018-01-14T01:34:07.913Z,1024.64
2018-01-14T01:34:48.475Z,1024.6
2018-01-14T01:35:29.039Z,1024.61
2018-01-14T01:36:09.610Z,1024.59
2018-01-14T01:36:50.166Z,1024.62
2018-01-14T01:37:30.715Z,1024.6
2018-01-14T01:38:11.270Z,1024.59
2018-01-14T01:38:51.830Z,1024.6
2018-01-14T01:39:32.399Z,1024.56
2018-01-14T01:40:12.950Z,1024.54
2018-01-14T01:40:53.514Z,1024.56
2018-01-14T01:41:34.075Z,1024.51
2018-01-14T01:42:14.637Z,1024.55
2018-01-14T01:42:55.185Z,1024.56
2018-01-14T01:43:35.739Z,1024.57
2018-01-14T01:44:16.293Z,1024.58
2018-01-14T01:44:56.869Z,1024.56
2018-01-14T01:45:37.430Z,1024.57
2018-01-14T01:46:17.984Z,1024.53
2018-01-14T01:46:58.542Z,1024.52
2018-01-14T01:47:39.102Z,1024.48
2018-01-14T01:48:19.650Z,1024.57
2018-01-14T01:49:00.214Z,1024.48
2018-01-14T01:49:40.773Z,1024.5
2018-01-14T01:50:21.318Z,1024.49
2018-01-14T01:51:01.882Z,1024.53
2018-01-14T01:51:42.438Z,1024.55
2018-01-14T01:52:23.016Z,1024.52
2018-01-14T01:53:03.571Z,1024.5
2018-01-14T01:53:44.135Z,1024.5
2018-01-14T01:54:24.705Z,1024.54
2018-01-14T01:55:05.257Z,1024.55
2018-01-14T01:55:45.831Z,1024.55
2018-01-14T01:56:26.386Z,1024.56
2018-01-14T01:57:06.948Z,1024.48
2018-01-14T01:57:47.523Z,1024.45
2018-01-14T01:58:28.092Z,1024.48
2018-01-14T01:59:08.656Z,1024.5
2018-01-14T01:59:49.266Z,1024.5
2018-01-14T02:00:29.835Z,1024.49
2018-01-14T02:01:10.396Z,1024.51
2018-01-14T02:01:50.961Z,1024.53
2018-01-14T02:02:31.511Z,1024.47
2018-01-14T02:03:12.059Z,1024.5
2018-01-14T02:03:52.643Z,1024.47
2018-01-14T02:04:33.205Z,1024.47
2018-01-14T02:05:13.765Z,1024.48
2018-01-14T02:05:54.335Z,1024.52
2018-01-14T02:06:34.893Z,1024.49
2018-01-14T02:07:15.442Z,1024.51
2018-01-14T02:07:56.021Z,1024.47
2018-01-14T02:08:36.585Z,1024.46
2018-01-14T02:09:17.157Z,1024.46
2018-01-14T02:09:57.743Z,1024.48
2018-01-14T02:10:38.303Z,1024.5
2018-01-14T02:11:18.869Z,1024.46
2018-01-14T02:11:59.475Z,1024.46
2018-01-14T02:12:40.030Z,1024.46
2018-01-14T02:13:20.578Z,1024.5
2018-01-14T02:14:01.144Z,1024.45
2018-01-14T02:14:41.739Z,1024.46
2018-01-14T02:15:22.312Z,1024.43
2018-01-14T02:16:02.895Z,1024.42
2018-01-14T02:16:43.486Z,1024.48
2018-01-14T02:17:24.102Z,1024.47
2018-01-14T02:18:04.654Z,1024.5
2018-01-14T02:18:45.243Z,1024.46
2018-01-14T02:19:25.834Z,1024.46
2018-01-14T02:20:06.430Z,1024.52
2018-01-14T02:20:47.003Z,1024.51
2018-01-14T02:21:27.564Z,1024.49
2018-01-14T02:22:08.148Z,1024.54
2018-01-14T02:22:48.698Z,1024.55
2018-01-14T02:23:29.299Z,1024.53
2018-01-14T02:24:09.844Z,1024.59
2018-01-14T02:24:50.448Z,1024.62
2018-01-14T02:25:31.040Z,1024.6
2018-01-14T02:26:11.596Z,1024.63
2018-01-14T02:26:52.162Z,1024.64
2018-01-14T02:27:32.740Z,1024.64
2018-01-14T02:28:13.307Z,1024.66
2018-01-14T02:28:53.902Z,1024.61
2018-01-14T02:29:34.490Z,1024.67
2018-01-14T02:30:15.078Z,1024.63
2018-01-14T02:30:55.697Z,1024.64
2018-01-14T02:31:36.270Z,1024.6
2018-01-14T02:32:16.829Z,1024.66
2018-01-14T02:32:57.380Z,1024.65
2018-01-14T02:33:37.973Z,1024.65
2018-01-14T02:34:18.543Z,1024.61
2018-01-14T02:34:59.101Z,1024.66
2018-01-14T02:35:39.665Z,1024.62
2018-01-14T02:36:20.231Z,1024.67
2018-01-14T02:37:00.824Z,1024.67
2018-01-14T02:37:41.400Z,1024.62
2018-01-14T02:38:21.957Z,1024.64
2018-01-14T02:39:02.524Z,1024.69
2018-01-14T02:39:43.125Z,1024.64
2018-01-14T02:40:23.708Z,1024.66
2018-01-14T02:41:04.305Z,1024.68
2018-01-14T02:41:44.834Z,1024.68
2018-01-14T02:42:25.409Z,1024.6
2018-01-14T02:43:05.976Z,1024.62
2018-01-14T02:43:46.549Z,1024.62
2018-01-14T02:44:27.121Z,1024.61
2018-01-14T02:45:07.712Z,1024.59
2018-01-14T02:45:48.274Z,1024.61
2018-01-14T02:46:28.838Z,1024.63
2018-01-14T02:47:09.394Z,1024.61
2018-01-14T02:47:49.950Z,1024.62
2018-01-14T02:48:30.502Z,1024.65
2018-01-14T02:49:11.105Z,1024.66
2018-01-14T02:49:51.665Z,1024.64
2018-01-14T02:50:32.225Z,1024.61
2018-01-14T02:51:12.772Z,1024.67
2018-01-14T02:51:53.344Z,1024.65
2018-01-14T02:52:33.895Z,1024.65
2018-01-14T02:53:14.460Z,1024.67
2018-01-14T02:53:55.022Z,1024.66
2018-01-14T02:54:35.566Z,1024.69
2018-01-14T02:55:16.125Z,1024.7
2018-01-14T02:55:56.685Z,1024.7
2018-01-14T02:56:37.239Z,1024.72
2018-01-14T02:57:17.812Z,1024.69
2018-01-14T02:57:58.391Z,1024.67
2018-01-14T02:58:38.967Z,1024.73
2018-01-14T02:59:19.515Z,1024.71
2018-01-14T03:00:00.068Z,1024.71
2018-01-14T03:00:40.645Z,1024.72
2018-01-14T03:01:21.200Z,1024.76
2018-01-14T03:02:01.772Z,1024.72
2018-01-14T03:02:42.346Z,1024.77
2018-01-14T03:03:22.898Z,1024.74
2018-01-14T03:04:03.459Z,1024.77
2018-01-14T03:04:45.853Z,1024.81
2018-01-14T03:05:26.471Z,1024.78
2018-01-14T03:06:07.037Z,1024.8
2018-01-14T03:06:47.608Z,1024.75
2018-01-14T03:07:28.208Z,1024.75
2018-01-14T03:08:08.776Z,1024.72
2018-01-14T03:08:49.346Z,1024.74
2018-01-14T03:09:29.902Z,1024.7
2018-01-14T03:10:10.463Z,1024.72
2018-01-14T03:10:51.045Z,1024.72
2018-01-14T03:11:31.600Z,1024.77
2018-01-14T03:12:12.148Z,1024.77
2018-01-14T03:12:52.712Z,1024.78
2018-01-14T03:13:33.265Z,1024.77
2018-01-14T03:14:13.821Z,1024.73
2018-01-14T03:14:54.389Z,1024.77
2018-01-14T03:15:34.945Z,1024.76
2018-01-14T03:16:15.509Z,1024.76
2018-01-14T03:16:56.066Z,1024.73
2018-01-14T03:17:36.646Z,1024.74
2018-01-14T03:18:17.202Z,1024.74
2018-01-14T03:18:57.807Z,1024.71
2018-01-14T03:19:38.402Z,1024.71
2018-01-14T03:20:18.965Z,1024.76
2018-01-14T03:20:59.535Z,1024.76
2018-01-14T03:21:40.101Z,1024.8
2018-01-14T03:22:20.664Z,1024.82
2018-01-14T03:23:01.246Z,1024.74
2018-01-14T03:23:41.824Z,1024.75
2018-01-14T03:24:22.407Z,1024.72
2018-01-14T03:25:02.978Z,1024.74
2018-01-14T03:25:43.540Z,1024.69
2018-01-14T03:26:24.112Z,1024.65
2018-01-14T03:27:04.671Z,1024.68
2018-01-14T03:27:45.285Z,1024.67
2018-01-14T03:28:25.796Z,1024.67
2018-01-14T03:29:06.378Z,1024.72
2018-01-14T03:29:46.948Z,1024.69
2018-01-14T03:30:27.510Z,1024.68
2018-01-14T03:31:08.071Z,1024.68
2018-01-14T03:31:48.628Z,1024.66
2018-01-14T03:32:29.203Z,1024.69
2018-01-14T03:33:09.746Z,1024.69
2018-01-14T03:33:50.326Z,1024.65
2018-01-14T03:34:30.929Z,1024.64
2018-01-14T03:35:11.490Z,1024.64
2018-01-14T03:35:52.049Z,1024.59
2018-01-14T03:36:32.600Z,1024.63
2018-01-14T03:37:13.160Z,1024.6
2018-01-14T03:37:53.737Z,1024.65
2018-01-14T03:38:34.279Z,1024.64
2018-01-14T03:39:14.842Z,1024.64
2018-01-14T03:39:55.390Z,1024.63
2018-01-14T03:40:35.953Z,1024.67
2018-01-14T03:41:16.522Z,1024.59
2018-01-14T03:41:57.071Z,1024.56
2018-01-14T03:42:37.635Z,1024.58
2018-01-14T03:43:18.185Z,1024.52
2018-01-14T03:43:58.756Z,1024.53
2018-01-14T03:44:39.333Z,1024.55
2018-01-14T03:45:19.899Z,1024.58
2018-01-14T03:46:00.456Z,1024.54
2018-01-14T03:46:41.059Z,1024.54
2018-01-14T03:47:21.654Z,1024.53
2018-01-14T03:48:04.984Z,1024.5
2018-01-14T03:48:45.548Z,1024.54
2018-01-14T03:49:26.110Z,1024.56
2018-01-14T03:50:06.682Z,1024.55
2018-01-14T03:50:47.247Z,1024.54
2018-01-14T03:51:27.832Z,1024.56
2018-01-14T03:52:11.347Z,1024.53
2018-01-14T03:52:51.911Z,1024.53
2018-01-14T03:53:32.475Z,1024.52
2018-01-14T03:54:13.035Z,1024.56
2018-01-14T03:54:53.599Z,1024.56
2018-01-14T03:55:34.887Z,1024.51
2018-01-14T03:56:15.450Z,1024.52
2018-01-14T03:56:56.025Z,1024.54
2018-01-14T03:57:41.983Z,1024.48
2018-01-14T03:58:22.547Z,1024.49
2018-01-14T03:59:03.096Z,1024.49
2018-01-14T03:59:46.484Z,1024.48
2018-01-14T04:02:14.517Z,1024.47
2018-01-14T04:02:55.086Z,1024.46
2018-01-14T04:03:36.396Z,1024.43
2018-01-14T04:04:17.003Z,1024.42
2018-01-14T04:04:57.571Z,1024.44
2018-01-14T04:05:38.115Z,1024.43
2018-01-14T04:06:18.686Z,1024.41
2018-01-14T04:06:59.272Z,1024.41
2018-01-14T04:07:39.880Z,1024.37
2018-01-14T04:08:20.411Z,1024.42
2018-01-14T04:09:00.989Z,1024.41
2018-01-14T04:09:41.539Z,1024.42
2018-01-14T04:10:22.103Z,1024.38
2018-01-14T04:11:02.665Z,1024.43
2018-01-14T04:11:43.225Z,1024.38
2018-01-14T04:12:23.782Z,1024.4
2018-01-14T04:13:04.327Z,1024.39
2018-01-14T04:13:44.881Z,1024.39
2018-01-14T04:14:25.439Z,1024.45
2018-01-14T04:15:06.060Z,1024.42
2018-01-14T04:15:46.638Z,1024.45
2018-01-14T04:16:27.228Z,1024.47
2018-01-14T04:17:07.807Z,1024.43
2018-01-14T04:17:48.387Z,1024.42
2018-01-14T04:18:28.940Z,1024.43
2018-01-14T04:19:09.503Z,1024.4
2018-01-14T04:19:50.061Z,1024.4
2018-01-14T04:20:30.647Z,1024.41
2018-01-14T04:21:11.230Z,1024.39
2018-01-14T04:21:51.801Z,1024.34
2018-01-14T04:22:32.376Z,1024.34
2018-01-14T04:23:12.960Z,1024.34
2018-01-14T04:23:53.522Z,1024.35
2018-01-14T04:24:34.086Z,1024.36
2018-01-14T04:25:14.651Z,1024.31
2018-01-14T04:25:55.210Z,1024.35
2018-01-14T04:26:35.863Z,1024.38
2018-01-14T04:27:16.439Z,1024.37
2018-01-14T04:27:57.014Z,1024.39
2018-01-14T04:28:37.577Z,1024.44
2018-01-14T04:29:18.162Z,1024.41
2018-01-14T04:29:58.717Z,1024.36
2018-01-14T04:30:39.366Z,1024.4
2018-01-14T04:31:20.815Z,1024.42
2018-01-14T04:32:01.395Z,1024.41
2018-01-14T04:32:41.966Z,1024.45
2018-01-14T04:33:22.519Z,1024.47
2018-01-14T04:34:03.088Z,1024.44
2018-01-14T04:34:43.654Z,1024.45
2018-01-14T04:35:24.209Z,1024.47
2018-01-14T04:36:04.791Z,1024.51
2018-01-14T04:36:45.355Z,1024.51
2018-01-14T04:37:25.928Z,1024.5
2018-01-14T04:38:06.489Z,1024.56
2018-01-14T04:38:47.090Z,1024.48
2018-01-14T04:39:27.653Z,1024.51
2018-01-14T04:40:08.227Z,1024.47
2018-01-14T04:40:48.809Z,1024.46
2018-01-14T04:41:29.365Z,1024.42
2018-01-14T04:42:09.932Z,1024.41
2018-01-14T04:42:50.490Z,1024.36
2018-01-14T04:43:31.093Z,1024.36
2018-01-14T04:44:13.224Z,1024.36
2018-01-14T04:44:53.771Z,1024.37
2018-01-14T04:45:34.356Z,1024.34
2018-01-14T04:46:14.947Z,1024.4
2018-01-14T04:46:55.531Z,1024.38
2018-01-14T04:47:36.092Z,1024.41
2018-01-14T04:48:16.675Z,1024.36
2018-01-14T04:48:57.231Z,1024.37
2018-01-14T04:49:37.806Z,1024.36
2018-01-14T04:50:18.363Z,1024.36
2018-01-14T04:50:58.930Z,1024.35
2018-01-14T04:51:39.498Z,1024.35
2018-01-14T04:52:20.068Z,1024.37
2018-01-14T04:53:00.645Z,1024.35
2018-01-14T04:53:41.211Z,1024.4
2018-01-14T04:54:21.795Z,1024.38
2018-01-14T04:55:02.385Z,1024.36
2018-01-14T04:55:42.957Z,1024.33
2018-01-14T04:56:23.520Z,1024.37
2018-01-14T04:57:04.101Z,1024.34
2018-01-14T04:57:44.686Z,1024.35
2018-01-14T04:58:25.244Z,1024.36
2018-01-14T04:59:05.821Z,1024.37
2018-01-14T04:59:46.404Z,1024.36
2018-01-14T05:00:26.959Z,1024.35
2018-01-14T05:01:07.536Z,1024.38
2018-01-14T05:01:48.123Z,1024.35
2018-01-14T05:02:28.674Z,1024.34
2018-01-14T05:03:09.259Z,1024.33
2018-01-14T05:03:49.811Z,1024.34
2018-01-14T05:04:30.365Z,1024.38
2018-01-14T05:05:10.930Z,1024.35
2018-01-14T05:05:51.543Z,1024.39
2018-01-14T05:06:32.097Z,1024.37
2018-01-14T05:07:12.669Z,1024.35
2018-01-14T05:07:53.235Z,1024.33
2018-01-14T05:08:33.795Z,1024.35
2018-01-14T05:09:14.395Z,1024.35
2018-01-14T05:09:54.969Z,1024.35
2018-01-14T05:10:35.524Z,1024.34
2018-01-14T05:11:16.092Z,1024.33
2018-01-14T05:11:56.663Z,1024.32
2018-01-14T05:12:37.219Z,1024.39
2018-01-14T05:13:17.803Z,1024.36
2018-01-14T05:13:58.357Z,1024.43
2018-01-14T05:14:38.923Z,1024.43
2018-01-14T05:15:19.474Z,1024.49
2018-01-14T05:16:00.039Z,1024.45
2018-01-14T05:16:40.601Z,1024.44
2018-01-14T05:17:21.191Z,1024.49
2018-01-14T05:18:01.750Z,1024.47
2018-01-14T05:18:42.354Z,1024.49
2018-01-14T05:19:22.911Z,1024.46
2018-01-14T05:20:03.481Z,1024.5
2018-01-14T05:20:44.094Z,1024.52
2018-01-14T05:21:24.676Z,1024.49
2018-01-14T05:22:05.272Z,1024.56
2018-01-14T05:22:45.859Z,1024.57
2018-01-14T05:23:26.427Z,1024.52
2018-01-14T05:24:06.996Z,1024.58
2018-01-14T05:24:47.557Z,1024.53
2018-01-14T05:25:28.124Z,1024.49
2018-01-14T05:26:08.701Z,1024.53
2018-01-14T05:26:49.259Z,1024.53
2018-01-14T05:27:29.817Z,1024.55
2018-01-14T05:28:10.405Z,1024.55
2018-01-14T05:28:50.953Z,1024.56
2018-01-14T05:29:31.527Z,1024.59
2018-01-14T05:30:12.087Z,1024.55
2018-01-14T05:30:52.656Z,1024.55
2018-01-14T05:31:33.272Z,1024.55
2018-01-14T05:32:13.922Z,1024.53
2018-01-14T05:32:54.495Z,1024.5
2018-01-14T05:33:35.061Z,1024.5
2018-01-14T05:34:15.673Z,1024.52
2018-01-14T05:34:56.247Z,1024.51
2018-01-14T05:35:36.804Z,1024.48
2018-01-14T05:36:17.362Z,1024.48
2018-01-14T05:36:57.918Z,1024.51
2018-01-14T05:37:38.474Z,1024.47
2018-01-14T05:38:19.026Z,1024.5
2018-01-14T05:38:59.585Z,1024.42
2018-01-14T05:39:40.143Z,1024.45
2018-01-14T05:40:20.718Z,1024.49
2018-01-14T05:41:01.276Z,1024.49
2018-01-14T05:41:41.833Z,1024.45
2018-01-14T05:42:22.386Z,1024.43
2018-01-14T05:43:03.012Z,1024.43
2018-01-14T05:43:43.579Z,1024.4
2018-01-14T05:44:24.152Z,1024.4
2018-01-14T05:45:04.717Z,1024.4
2018-01-14T05:45:45.284Z,1024.46
2018-01-14T05:46:25.863Z,1024.43
2018-01-14T05:47:06.443Z,1024.46
2018-01-14T05:47:47.030Z,1024.51
2018-01-14T05:48:27.578Z,1024.48
2018-01-14T05:49:08.179Z,1024.53
2018-01-14T05:49:48.725Z,1024.45
2018-01-14T05:50:29.287Z,1024.41
2018-01-14T05:51:09.853Z,1024.46
2018-01-14T05:51:50.425Z,1024.44
2018-01-14T05:52:30.992Z,1024.44
2018-01-14T05:53:11.547Z,1024.4
2018-01-14T05:53:52.103Z,1024.41
2018-01-14T05:54:32.691Z,1024.38
2018-01-14T05:55:13.247Z,1024.37
2018-01-14T05:55:53.845Z,1024.38
2018-01-14T05:56:34.391Z,1024.38
2018-01-14T05:57:14.957Z,1024.41
2018-01-14T05:57:55.525Z,1024.34
2018-01-14T05:58:36.102Z,1024.42
2018-01-14T05:59:16.659Z,1024.43
2018-01-14T05:59:57.249Z,1024.49
2018-01-14T06:00:37.847Z,1024.49
2018-01-14T06:01:18.396Z,1024.45
2018-01-14T06:01:58.946Z,1024.55
2018-01-14T06:02:40.335Z,1024.51
2018-01-14T06:03:20.978Z,1024.49
2018-01-14T06:04:01.541Z,1024.52
2018-01-14T06:04:42.094Z,1024.52
2018-01-14T06:05:22.676Z,1024.51
2018-01-14T06:06:03.284Z,1024.54
2018-01-14T06:06:43.876Z,1024.5
2018-01-14T06:07:24.486Z,1024.53
2018-01-14T06:08:05.089Z,1024.54
2018-01-14T06:08:45.653Z,1024.56
2018-01-14T06:09:26.236Z,1024.61
2018-01-14T06:10:06.840Z,1024.55
2018-01-14T06:10:47.422Z,1024.49
2018-01-14T06:11:27.977Z,1024.57
2018-01-14T06:12:08.552Z,1024.52
2018-01-14T06:12:49.115Z,1024.5
2018-01-14T06:13:29.746Z,1024.52
2018-01-14T06:14:10.301Z,1024.54
2018-01-14T06:14:50.899Z,1024.55
2018-01-14T06:15:31.453Z,1024.55
2018-01-14T06:16:12.025Z,1024.55
2018-01-14T06:16:52.613Z,1024.5
2018-01-14T06:17:33.166Z,1024.5
2018-01-14T06:18:13.739Z,1024.46
2018-01-14T06:18:54.305Z,1024.48
2018-01-14T06:19:34.862Z,1024.53
2018-01-14T06:20:15.421Z,1024.55
2018-01-14T06:20:56.000Z,1024.45
2018-01-14T06:21:36.558Z,1024.43
2018-01-14T06:22:17.117Z,1024.49
2018-01-14T06:22:57.674Z,1024.5
2018-01-14T06:23:38.259Z,1024.53
2018-01-14T06:24:18.816Z,1024.52
2018-01-14T06:24:59.378Z,1024.48
2018-01-14T06:25:39.960Z,1024.51
2018-01-14T06:26:20.561Z,1024.47
2018-01-14T06:27:01.174Z,1024.43
2018-01-14T06:27:41.769Z,1024.37
2018-01-14T06:28:22.356Z,1024.4
2018-01-14T06:29:02.899Z,1024.45
2018-01-14T06:29:43.466Z,1024.4
2018-01-14T06:30:24.025Z,1024.44
2018-01-14T06:31:04.601Z,1024.4
2018-01-14T06:31:45.176Z,1024.44
2018-01-14T06:32:25.741Z,1024.42
2018-01-14T06:33:06.342Z,1024.39
2018-01-14T06:33:46.990Z,1024.39
2018-01-14T06:34:27.481Z,1024.44
2018-01-14T06:35:08.064Z,1024.41
2018-01-14T06:35:48.621Z,1024.39
2018-01-14T06:36:29.229Z,1024.4
2018-01-14T06:37:09.787Z,1024.38
2018-01-14T06:37:50.337Z,1024.38
2018-01-14T06:38:30.932Z,1024.44
2018-01-14T06:39:11.492Z,1024.45
2018-01-14T06:39:52.052Z,1024.47
2018-01-14T06:40:32.624Z,1024.46
2018-01-14T06:41:13.173Z,1024.46
2018-01-14T06:41:53.730Z,1024.49
2018-01-14T06:42:34.293Z,1024.52
2018-01-14T06:43:14.861Z,1024.52
2018-01-14T06:43:55.439Z,1024.49
2018-01-14T06:44:35.993Z,1024.46
2018-01-14T06:45:16.549Z,1024.51
2018-01-14T06:45:57.145Z,1024.51
2018-01-14T06:46:37.717Z,1024.53
2018-01-14T06:47:18.283Z,1024.52
2018-01-14T06:47:58.907Z,1024.52
2018-01-14T06:48:39.424Z,1024.56
2018-01-14T06:49:20.000Z,1024.54
2018-01-14T06:50:00.574Z,1024.51
2018-01-14T06:50:41.133Z,1024.51
2018-01-14T06:51:21.693Z,1024.47
2018-01-14T06:52:02.258Z,1024.51
2018-01-14T06:52:42.832Z,1024.48
2018-01-14T06:53:23.411Z,1024.47
2018-01-14T06:54:03.959Z,1024.49
2018-01-14T06:54:44.519Z,1024.51
2018-01-14T06:55:25.099Z,1024.5
2018-01-14T06:56:05.660Z,1024.5
2018-01-14T06:56:46.226Z,1024.51
2018-01-14T06:57:26.806Z,1024.52
2018-01-14T06:58:07.379Z,1024.49
2018-01-14T06:58:47.974Z,1024.5
2018-01-14T06:59:28.545Z,1024.54
2018-01-14T07:00:09.104Z,1024.52
2018-01-14T07:00:49.675Z,1024.54
2018-01-14T07:01:30.268Z,1024.54
2018-01-14T07:02:10.837Z,1024.53
2018-01-14T07:02:51.402Z,1024.54
2018-01-14T07:03:31.974Z,1024.48
2018-01-14T07:04:12.545Z,1024.51
2018-01-14T07:04:53.164Z,1024.47
2018-01-14T07:05:33.732Z,1024.52
2018-01-14T07:06:14.317Z,1024.49
2018-01-14T07:06:54.879Z,1024.52
2018-01-14T07:07:35.461Z,1024.47
2018-01-14T07:08:16.044Z,1024.51
2018-01-14T07:08:56.605Z,1024.54
2018-01-14T07:09:37.148Z,1024.53
2018-01-14T07:10:17.713Z,1024.51
2018-01-14T07:10:58.300Z,1024.51
2018-01-14T07:11:38.874Z,1024.46
2018-01-14T07:12:19.423Z,1024.48
2018-01-14T07:12:59.986Z,1024.44
2018-01-14T07:13:40.541Z,1024.44
2018-01-14T07:15:54.111Z,1024.44
2018-01-14T07:16:34.697Z,1024.46
2018-01-14T07:17:15.260Z,1024.43
2018-01-14T07:17:55.824Z,1024.45
2018-01-14T07:18:36.376Z,1024.48
2018-01-14T07:19:16.939Z,1024.46
2018-01-14T07:19:57.512Z,1024.45
2018-01-14T07:20:38.064Z,1024.43
2018-01-14T07:21:18.649Z,1024.47
2018-01-14T07:21:59.210Z,1024.47
2018-01-14T07:22:39.774Z,1024.43
2018-01-14T07:23:20.330Z,1024.49
2018-01-14T07:24:00.936Z,1024.44
2018-01-14T07:24:41.519Z,1024.48
2018-01-14T07:25:22.105Z,1024.46
2018-01-14T07:26:02.654Z,1024.44
2018-01-14T07:26:43.227Z,1024.44
2018-01-14T07:27:23.790Z,1024.47
2018-01-14T07:28:04.344Z,1024.41
2018-01-14T07:28:44.937Z,1024.42
2018-01-14T07:29:25.496Z,1024.37
2018-01-14T07:30:06.073Z,1024.41
2018-01-14T07:30:46.811Z,1024.43
2018-01-14T07:31:27.453Z,1024.37
2018-01-14T07:32:08.050Z,1024.4
2018-01-14T07:32:48.600Z,1024.39
2018-01-14T07:33:29.160Z,1024.42
2018-01-14T07:34:09.724Z,1024.44
2018-01-14T07:34:50.286Z,1024.42
2018-01-14T07:35:30.850Z,1024.45
2018-01-14T07:36:11.446Z,1024.46
2018-01-14T07:36:52.003Z,1024.5
2018-01-14T07:37:32.561Z,1024.48
2018-01-14T07:38:13.131Z,1024.47
2018-01-14T07:38:53.685Z,1024.52
2018-01-14T07:39:34.255Z,1024.51
2018-01-14T07:40:14.804Z,1024.57
2018-01-14T07:40:55.362Z,1024.53
2018-01-14T07:41:35.912Z,1024.53
2018-01-14T07:42:16.463Z,1024.5
2018-01-14T07:42:57.038Z,1024.54
2018-01-14T07:43:37.599Z,1024.6
2018-01-14T07:44:18.164Z,1024.58
2018-01-14T07:44:58.730Z,1024.55
2018-01-14T07:45:39.375Z,1024.55
2018-01-14T07:46:19.899Z,1024.53
2018-01-14T07:47:00.449Z,1024.55
2018-01-14T07:47:41.018Z,1024.56
2018-01-14T07:48:21.594Z,1024.56
2018-01-14T07:49:02.163Z,1024.54
2018-01-14T07:49:42.719Z,1024.49
2018-01-14T07:50:23.285Z,1024.49
2018-01-14T07:51:03.865Z,1024.54
2018-01-14T07:51:44.435Z,1024.5
2018-01-14T07:52:24.983Z,1024.53
2018-01-14T07:53:05.537Z,1024.48
2018-01-14T07:53:46.090Z,1024.46
2018-01-14T07:54:26.658Z,1024.47
2018-01-14T07:55:07.206Z,1024.47
2018-01-14T07:55:47.815Z,1024.47
2018-01-14T07:56:28.390Z,1024.5
2018-01-14T07:57:08.945Z,1024.51
2018-01-14T07:57:49.541Z,1024.48
2018-01-14T07:58:30.126Z,1024.52
2018-01-14T07:59:10.689Z,1024.55
2018-01-14T07:59:51.264Z,1024.56
2018-01-14T08:00:31.826Z,1024.56
2018-01-14T08:01:12.390Z,1024.55
2018-01-14T08:01:52.954Z,1024.55
2018-01-14T08:02:33.525Z,1024.6
2018-01-14T08:03:14.098Z,1024.59
2018-01-14T08:03:54.692Z,1024.61
2018-01-14T08:04:35.260Z,1024.57
2018-01-14T08:05:15.886Z,1024.58
2018-01-14T08:05:56.464Z,1024.6
2018-01-14T08:06:37.022Z,1024.63
2018-01-14T08:07:17.597Z,1024.65
2018-01-14T08:07:58.160Z,1024.65
2018-01-14T08:08:38.710Z,1024.62
2018-01-14T08:09:19.257Z,1024.64
2018-01-14T08:09:59.817Z,1024.61
2018-01-14T08:10:40.391Z,1024.61
2018-01-14T08:11:20.925Z,1024.6
2018-01-14T08:12:01.489Z,1024.64
2018-01-14T08:12:42.045Z,1024.65
2018-01-14T08:13:22.628Z,1024.6
2018-01-14T08:14:03.183Z,1024.58
2018-01-14T08:14:43.737Z,1024.61
2018-01-14T08:15:24.296Z,1024.6